Friday, July 20, 2018, 11:38 AM CDT
Back to Local

KJLN, Joplin Regional Airport

Location: Webb City, MO, United States Lat: 37.15
Local Time: 11:38 AM CDT (16:38 GMT) Lon: -94.5
Time Zone: US/Central Elev: 980 ft

Show me the last for .
Show Decoded

2018-07-20 10:53 METAR KJLN 201553Z VRB03KT 10SM CLR 32/21 A2988 RMK AO2 SLP106 T03220211 =
2018-07-20 09:53 METAR KJLN 201453Z COR 09007KT 10SM CLR 30/21 A2989 RMK AO2 SLP110 T03000211
                 50007 =
2018-07-20 08:53 METAR KJLN 201353Z 06006KT 10SM CLR 28/21 A2990 RMK AO2 SLP112 T02780206 =
2018-07-20 07:53 METAR KJLN 201253Z 06007KT 10SM CLR 24/19 A2988 RMK AO2 SLP109 T02440194 =
2018-07-20 06:53 METAR KJLN 201153Z VRB03KT 10SM CLR 22/19 A2987 RMK AO2 SLP105 T02220189 10261
                 20211 53018 =
2018-07-20 05:53 METAR KJLN 201053Z 03004KT 10SM CLR 22/19 A2985 RMK AO2 SLP096 T02220194 =
2018-07-20 04:53 METAR KJLN 200953Z AUTO 11003KT 10SM CLR 24/19 A2983 RMK AO2 SLP085 T02440189 =
2018-07-20 03:53 METAR KJLN 200853Z AUTO 18007KT 10SM CLR 25/18 A2982 RMK AO2 SLP082 T02500183
                 58009 =
2018-07-20 02:53 METAR KJLN 200753Z AUTO 15004KT 10SM FEW120 24/18 A2983 RMK AO2 SLP085 T02440178
                 =
2018-07-20 01:53 METAR KJLN 200653Z AUTO 18004KT 10SM CLR 24/18 A2985 RMK AO2 SLP094 T02390178 =
2018-07-20 00:53 METAR KJLN 200553Z AUTO 14006KT 10SM CLR 25/17 A2985 RMK AO2 SLP093 60000
                 T02500172 10256 20228 403890222 58006 =
2018-07-19 23:53 METAR KJLN 200453Z AUTO 16009KT 10SM CLR 25/18 A2986 RMK AO2 SLP098 T02500183 =
2018-07-19 22:53 METAR KJLN 200353Z AUTO 14008KT 10SM CLR 25/19 A2986 RMK AO2 LTG DSNT SE
                 RAB42E51 TSB30E45 SLP099 P0000 T02500189 =
2018-07-19 22:51 METAR KJLN 200351Z AUTO 13007KT 10SM CLR 24/19 A2986 RMK AO2 LTG DSNT SE
                 RAB42E51 TSB30E45 P0000 =
2018-07-19 22:36 METAR KJLN 200336Z AUTO 16007KT 10SM TS CLR 24/19 A2988 RMK AO2 LTG DSNT NW
                 TSB30 T02390189 =
2018-07-19 21:53 METAR KJLN 200253Z AUTO VRB03KT 10SM CLR 24/18 A2987 RMK AO2 LTG DSNT SW AND W
                 SLP101 60000 T02390183 51003 =
2018-07-19 20:53 METAR KJLN 200153Z 14007KT 10SM CLR 23/19 A2985 RMK AO2 RAB17E40 SLP095 P0000
                 T02330189 =
2018-07-19 19:53 METAR KJLN 200053Z 13011KT 10SM CLR 24/19 A2989 RMK AO2 PRESRR SLP112 T02390189
                 =
2018-07-19 19:01 METAR KJLN 200001Z 05009G17KT 10SM CLR 23/19 A2986 RMK AO2 T02330194 =
2018-07-19 18:53 METAR KJLN 192353Z COR 04010KT 10SM CLR 23/19 A2986 RMK AO2 PK WND 04037/2309
                 WSHFT 2303 RAB01E20 SLP101 P0000 60000 T02330194 10389 20233 50003 =
2018-07-19 18:34 METAR KJLN 192334Z 08008G20KT 10SM SCT090 24/19 A2988 RMK AO2 PK WND 04037/2309
                 WSHFT 2303 LTG DSNT NE-SE RAB01E20 CB DSNT E P0000 T02390189 =
2018-07-19 18:19 METAR KJLN 192319Z 07016G31KT 10SM VCTS -RA SCT060CB BKN075 24/19 A2986 =
2018-07-19 17:53 METAR KJLN 192253Z 01018G33KT 9SM VCTS SCT060CB BKN080 31/19 A2989 RMK AO2 PK
                 WND 35033/2253 LTG DSNT N AND NE SLP108 OCNL LTGIC NE TS NE MOV SE T03060194 =
2018-07-19 16:53 METAR KJLN 192153Z VRB03KT 10SM FEW070 38/20 A2983 RMK AO2 SLP085 T03780200 =
2018-07-19 15:53 METAR KJLN 192053Z VRB05KT 10SM CLR 38/22 A2985 RMK AO2 SLP093 T03830217 56010 =
2018-07-19 14:53 METAR KJLN 191953Z VRB04KT 10SM CLR 37/21 A2985 RMK AO2 SLP094 T03720206 =
2018-07-19 13:53 METAR KJLN 191853Z 22007KT 10SM CLR 37/21 A2986 RMK AO2 SLP098 T03670211 =
2018-07-19 12:53 METAR KJLN 191753Z 14003KT 10SM CLR 35/22 A2988 RMK AO2 SLP105 T03500217 10356
                 20228 56005 =
2018-07-19 11:53 METAR KJLN 191653Z 21005KT 10SM CLR 34/21 A2989 RMK AO2 SLP107 T03390206 =

Support USWX by starting your Amazon purchase here.